FLX713 SBTE-SBJU
Flight info
| Callsign | FLX713 |
|---|---|
| Flight time | 0h 44m |
| Altitude | 33000 |
| Route | SBJU |
| Aircraft | E190/M-SDE3GILORVW/S |
Departure
| Time | 2026-05-05 15:02 |
|---|---|
| Airport | Senador Petrônio Portela Airport (SBTE) |
Arrival
| Time | 2026-05-05 15:46 |
|---|---|
| Airport | Orlando Bezerra de Menezes Airport (SBJU) |
| Time | Latitude | Longitude | Altitude | Speed | Heading |
|---|---|---|---|---|---|
| 2026-05-05 14:35 | -5.06471 | -42.82087 | 234 ft | 0 kts | 84° |
| 2026-05-05 14:53 | -5.06471 | -42.82090 | 234 ft | 0 kts | 84° |
| 2026-05-05 14:53 | -5.06474 | -42.82102 | 234 ft | 2 kts | 67° |
| 2026-05-05 14:53 | -5.06482 | -42.82115 | 233 ft | 2 kts | 49° |
| 2026-05-05 14:53 | -5.06493 | -42.82125 | 233 ft | 2 kts | 30° |
| 2026-05-05 14:54 | -5.06507 | -42.82131 | 233 ft | 2 kts | 11° |
| 2026-05-05 14:54 | -5.06519 | -42.82132 | 233 ft | 0 kts | 356° |
| 2026-05-05 14:54 | -5.06526 | -42.82131 | 233 ft | 0 kts | 353° |
| 2026-05-05 14:54 | -5.06527 | -42.82131 | 233 ft | 0 kts | 353° |
| 2026-05-05 14:57 | -5.06524 | -42.82131 | 233 ft | 1 kts | 351° |
| 2026-05-05 14:57 | -5.06509 | -42.82148 | 232 ft | 5 kts | 285° |
| 2026-05-05 14:57 | -5.06483 | -42.82190 | 231 ft | 9 kts | 345° |
| 2026-05-05 14:57 | -5.06412 | -42.82198 | 230 ft | 11 kts | 354° |
| 2026-05-05 14:58 | -5.06367 | -42.82238 | 229 ft | 11 kts | 264° |
| 2026-05-05 14:58 | -5.06356 | -42.82327 | 226 ft | 14 kts | 324° |
| 2026-05-05 14:58 | -5.06247 | -42.82349 | 225 ft | 16 kts | 354° |
| 2026-05-05 14:58 | -5.06122 | -42.82361 | 224 ft | 18 kts | 355° |
| 2026-05-05 14:59 | -5.05987 | -42.82375 | 224 ft | 20 kts | 353° |
| 2026-05-05 14:59 | -5.05835 | -42.82391 | 221 ft | 23 kts | 354° |
| 2026-05-05 14:59 | -5.05666 | -42.82408 | 221 ft | 24 kts | 355° |
| 2026-05-05 14:59 | -5.05484 | -42.82428 | 219 ft | 27 kts | 354° |
| 2026-05-05 15:00 | -5.05293 | -42.82448 | 218 ft | 26 kts | 354° |
| 2026-05-05 15:00 | -5.05185 | -42.82458 | 217 ft | 20 kts | 353° |
| 2026-05-05 15:00 | -5.05066 | -42.82444 | 217 ft | 9 kts | 27° |
| 2026-05-05 15:00 | -5.05038 | -42.82474 | 216 ft | 9 kts | 212° |
| 2026-05-05 15:01 | -5.05096 | -42.82469 | 216 ft | 5 kts | 173° |
| 2026-05-05 15:01 | -5.05191 | -42.82459 | 217 ft | 45 kts | 174° |
| 2026-05-05 15:01 | -5.05828 | -42.82392 | 222 ft | 135 kts | 173° |
| 2026-05-05 15:01 | -5.06899 | -42.82283 | 693 ft | 169 kts | 172° |
| 2026-05-05 15:02 | -5.08179 | -42.82234 | 1233 ft | 200 kts | 174° |
| 2026-05-05 15:02 | -5.09635 | -42.82111 | 2071 ft | 216 kts | 170° |
| 2026-05-05 15:02 | -5.11082 | -42.81922 | 3188 ft | 215 kts | 168° |
| 2026-05-05 15:02 | -5.12515 | -42.81681 | 4365 ft | 209 kts | 159° |
| 2026-05-05 15:03 | -5.13601 | -42.80872 | 5409 ft | 201 kts | 125° |
| 2026-05-05 15:03 | -5.14366 | -42.79735 | 6403 ft | 201 kts | 122° |
| 2026-05-05 15:03 | -5.15118 | -42.78564 | 7312 ft | 205 kts | 121° |
| 2026-05-05 15:03 | -5.15878 | -42.77356 | 8129 ft | 211 kts | 120° |
| 2026-05-05 15:04 | -5.16661 | -42.76095 | 8961 ft | 217 kts | 120° |
| 2026-05-05 15:04 | -5.17455 | -42.74807 | 9794 ft | 221 kts | 119° |
| 2026-05-05 15:04 | -5.18252 | -42.73508 | 10588 ft | 225 kts | 119° |
| 2026-05-05 15:04 | -5.19073 | -42.72168 | 11370 ft | 229 kts | 119° |
| 2026-05-05 15:05 | -5.20759 | -42.69409 | 12875 ft | 238 kts | 119° |
| 2026-05-05 15:05 | -5.21625 | -42.67992 | 13613 ft | 242 kts | 119° |
| 2026-05-05 15:05 | -5.22511 | -42.66542 | 14352 ft | 246 kts | 119° |
| 2026-05-05 15:06 | -5.23404 | -42.65079 | 15062 ft | 250 kts | 120° |
| 2026-05-05 15:06 | -5.24305 | -42.63604 | 15761 ft | 253 kts | 120° |
| 2026-05-05 15:06 | -5.25233 | -42.62083 | 16445 ft | 257 kts | 120° |
| 2026-05-05 15:06 | -5.26154 | -42.60575 | 17107 ft | 260 kts | 120° |
| 2026-05-05 15:07 | -5.27107 | -42.59014 | 17772 ft | 264 kts | 120° |
| 2026-05-05 15:07 | -5.28063 | -42.57448 | 18435 ft | 266 kts | 120° |
| 2026-05-05 15:07 | -5.29038 | -42.55851 | 19098 ft | 269 kts | 120° |
| 2026-05-05 15:07 | -5.30017 | -42.54246 | 19729 ft | 272 kts | 121° |
| 2026-05-05 15:08 | -5.30998 | -42.52638 | 20355 ft | 275 kts | 121° |
| 2026-05-05 15:08 | -5.31998 | -42.51001 | 20950 ft | 278 kts | 121° |
| 2026-05-05 15:08 | -5.33017 | -42.49330 | 21560 ft | 281 kts | 121° |
| 2026-05-05 15:08 | -5.34034 | -42.47663 | 22142 ft | 283 kts | 121° |
| 2026-05-05 15:09 | -5.35066 | -42.45972 | 22722 ft | 286 kts | 122° |
| 2026-05-05 15:09 | -5.36106 | -42.44267 | 23269 ft | 290 kts | 122° |
| 2026-05-05 15:09 | -5.37157 | -42.42545 | 23800 ft | 294 kts | 122° |
| 2026-05-05 15:09 | -5.38233 | -42.40780 | 24332 ft | 298 kts | 122° |
| 2026-05-05 15:10 | -5.39320 | -42.38997 | 24856 ft | 301 kts | 122° |
| 2026-05-05 15:10 | -5.40418 | -42.37196 | 25371 ft | 305 kts | 123° |
| 2026-05-05 15:10 | -5.41528 | -42.35377 | 25896 ft | 307 kts | 123° |
| 2026-05-05 15:10 | -5.42636 | -42.33560 | 26398 ft | 310 kts | 123° |
| 2026-05-05 15:11 | -5.43767 | -42.31704 | 26902 ft | 312 kts | 123° |
| 2026-05-05 15:11 | -5.44904 | -42.29841 | 27378 ft | 315 kts | 123° |
| 2026-05-05 15:11 | -5.46052 | -42.27956 | 27835 ft | 319 kts | 123° |
| 2026-05-05 15:11 | -5.47211 | -42.26055 | 28283 ft | 322 kts | 123° |
| 2026-05-05 15:12 | -5.48391 | -42.24120 | 28729 ft | 325 kts | 124° |
| 2026-05-05 15:12 | -5.49564 | -42.22195 | 29182 ft | 328 kts | 123° |
| 2026-05-05 15:12 | -5.50760 | -42.20232 | 29651 ft | 330 kts | 124° |
| 2026-05-05 15:12 | -5.51958 | -42.18265 | 30115 ft | 333 kts | 124° |
| 2026-05-05 15:13 | -5.53165 | -42.16285 | 30566 ft | 335 kts | 123° |
| 2026-05-05 15:13 | -5.54394 | -42.14266 | 31024 ft | 337 kts | 123° |
| 2026-05-05 15:13 | -5.55605 | -42.12278 | 31440 ft | 339 kts | 124° |
| 2026-05-05 15:13 | -5.56842 | -42.10247 | 31850 ft | 342 kts | 124° |
| 2026-05-05 15:14 | -5.58090 | -42.08197 | 32240 ft | 345 kts | 124° |
| 2026-05-05 15:14 | -5.59389 | -42.06066 | 32256 ft | 361 kts | 124° |
| 2026-05-05 15:14 | -5.60725 | -42.03873 | 32295 ft | 374 kts | 124° |
| 2026-05-05 15:14 | -5.62112 | -42.01594 | 32334 ft | 388 kts | 124° |
| 2026-05-05 15:15 | -5.63548 | -41.99236 | 32368 ft | 401 kts | 123° |
| 2026-05-05 15:15 | -5.65041 | -41.96782 | 32399 ft | 414 kts | 123° |
| 2026-05-05 15:15 | -5.66567 | -41.94274 | 32429 ft | 427 kts | 123° |
| 2026-05-05 15:15 | -5.68123 | -41.91718 | 32455 ft | 439 kts | 123° |
| 2026-05-05 15:16 | -5.69737 | -41.89064 | 32534 ft | 449 kts | 123° |
| 2026-05-05 15:16 | -5.71373 | -41.86374 | 32911 ft | 449 kts | 123° |
| 2026-05-05 15:16 | -5.73003 | -41.83695 | 32966 ft | 449 kts | 123° |
| 2026-05-05 15:17 | -5.76315 | -41.78249 | 32995 ft | 469 kts | 123° |
| 2026-05-05 15:17 | -5.79735 | -41.72623 | 32993 ft | 473 kts | 123° |
| 2026-05-05 15:18 | -5.83168 | -41.66974 | 33000 ft | 473 kts | 123° |
| 2026-05-05 15:18 | -5.86576 | -41.61366 | 33003 ft | 472 kts | 123° |
| 2026-05-05 15:19 | -5.90013 | -41.55707 | 33015 ft | 472 kts | 123° |
| 2026-05-05 15:19 | -5.93428 | -41.50084 | 33018 ft | 472 kts | 123° |
| 2026-05-05 15:20 | -5.96858 | -41.44434 | 33021 ft | 472 kts | 123° |
| 2026-05-05 15:20 | -6.00280 | -41.38796 | 33028 ft | 473 kts | 123° |
| 2026-05-05 15:21 | -6.03706 | -41.33149 | 33030 ft | 473 kts | 123° |
| 2026-05-05 15:21 | -6.07119 | -41.27523 | 33037 ft | 473 kts | 123° |
| 2026-05-05 15:22 | -6.10539 | -41.21882 | 33047 ft | 472 kts | 123° |
| 2026-05-05 15:22 | -6.13974 | -41.16217 | 33055 ft | 472 kts | 123° |
| 2026-05-05 15:23 | -6.17393 | -41.10575 | 33073 ft | 472 kts | 123° |
| 2026-05-05 15:23 | -6.19068 | -41.07809 | 33063 ft | 459 kts | 123° |
| 2026-05-05 15:23 | -6.20730 | -41.05066 | 33069 ft | 453 kts | 123° |
| 2026-05-05 15:24 | -6.24008 | -40.99654 | 33057 ft | 455 kts | 123° |
| 2026-05-05 15:24 | -6.25652 | -40.96939 | 32584 ft | 457 kts | 123° |
| 2026-05-05 15:24 | -6.27318 | -40.94189 | 32097 ft | 456 kts | 123° |
| 2026-05-05 15:24 | -6.28968 | -40.91462 | 31594 ft | 456 kts | 123° |
| 2026-05-05 15:25 | -6.30630 | -40.88717 | 31086 ft | 457 kts | 123° |
| 2026-05-05 15:25 | -6.32280 | -40.85991 | 30581 ft | 457 kts | 123° |
| 2026-05-05 15:25 | -6.33931 | -40.83261 | 30073 ft | 455 kts | 123° |
| 2026-05-05 15:25 | -6.35563 | -40.80563 | 29577 ft | 450 kts | 123° |
| 2026-05-05 15:26 | -6.37158 | -40.77926 | 29088 ft | 446 kts | 123° |
| 2026-05-05 15:26 | -6.38779 | -40.75248 | 28592 ft | 443 kts | 122° |
| 2026-05-05 15:26 | -6.40366 | -40.72623 | 28120 ft | 440 kts | 122° |
| 2026-05-05 15:26 | -6.41944 | -40.70013 | 27638 ft | 437 kts | 122° |
| 2026-05-05 15:27 | -6.43511 | -40.67422 | 27158 ft | 433 kts | 122° |
| 2026-05-05 15:27 | -6.45055 | -40.64866 | 26685 ft | 429 kts | 122° |
| 2026-05-05 15:27 | -6.46612 | -40.62291 | 26209 ft | 426 kts | 122° |
| 2026-05-05 15:27 | -6.48133 | -40.59772 | 25740 ft | 423 kts | 122° |
| 2026-05-05 15:28 | -6.49646 | -40.57269 | 25279 ft | 419 kts | 121° |
| 2026-05-05 15:28 | -6.51160 | -40.54764 | 24814 ft | 416 kts | 121° |
| 2026-05-05 15:28 | -6.52651 | -40.52294 | 24348 ft | 411 kts | 121° |
| 2026-05-05 15:28 | -6.54130 | -40.49846 | 23892 ft | 408 kts | 121° |
| 2026-05-05 15:29 | -6.55596 | -40.47417 | 23438 ft | 405 kts | 121° |
| 2026-05-05 15:29 | -6.57047 | -40.45015 | 22996 ft | 402 kts | 120° |
| 2026-05-05 15:29 | -6.58489 | -40.42626 | 22555 ft | 400 kts | 120° |
| 2026-05-05 15:29 | -6.59936 | -40.40229 | 22109 ft | 397 kts | 120° |
| 2026-05-05 15:30 | -6.61343 | -40.37897 | 21682 ft | 394 kts | 120° |
| 2026-05-05 15:30 | -6.62760 | -40.35548 | 21247 ft | 391 kts | 120° |
| 2026-05-05 15:30 | -6.64170 | -40.33212 | 20815 ft | 387 kts | 120° |
| 2026-05-05 15:30 | -6.65549 | -40.30927 | 20392 ft | 384 kts | 120° |
| 2026-05-05 15:31 | -6.66943 | -40.28616 | 19965 ft | 381 kts | 120° |
| 2026-05-05 15:31 | -6.68293 | -40.26378 | 19551 ft | 378 kts | 120° |
| 2026-05-05 15:31 | -6.69662 | -40.24107 | 19129 ft | 375 kts | 120° |
| 2026-05-05 15:31 | -6.71006 | -40.21878 | 18717 ft | 373 kts | 120° |
| 2026-05-05 15:32 | -6.72343 | -40.19661 | 18311 ft | 370 kts | 120° |
| 2026-05-05 15:32 | -6.73668 | -40.17462 | 17899 ft | 366 kts | 120° |
| 2026-05-05 15:32 | -6.74981 | -40.15284 | 17497 ft | 363 kts | 120° |
| 2026-05-05 15:32 | -6.76280 | -40.13128 | 17107 ft | 360 kts | 120° |
| 2026-05-05 15:33 | -6.77570 | -40.10988 | 16714 ft | 358 kts | 120° |
| 2026-05-05 15:33 | -6.78854 | -40.08857 | 16318 ft | 355 kts | 120° |
| 2026-05-05 15:33 | -6.80129 | -40.06740 | 15925 ft | 353 kts | 120° |
| 2026-05-05 15:33 | -6.81405 | -40.04621 | 15525 ft | 351 kts | 120° |
| 2026-05-05 15:34 | -6.82666 | -40.02527 | 15141 ft | 350 kts | 120° |
| 2026-05-05 15:34 | -6.83921 | -40.00444 | 14753 ft | 348 kts | 120° |
| 2026-05-05 15:34 | -6.85177 | -39.98358 | 14368 ft | 346 kts | 120° |
| 2026-05-05 15:34 | -6.86404 | -39.96320 | 13990 ft | 344 kts | 120° |
| 2026-05-05 15:35 | -6.87645 | -39.94258 | 13608 ft | 342 kts | 120° |
| 2026-05-05 15:35 | -6.88868 | -39.92228 | 13234 ft | 340 kts | 120° |
| 2026-05-05 15:35 | -6.90106 | -39.90170 | 12855 ft | 338 kts | 120° |
| 2026-05-05 15:35 | -6.91315 | -39.88161 | 12484 ft | 335 kts | 120° |
| 2026-05-05 15:36 | -6.92513 | -39.86170 | 12114 ft | 333 kts | 120° |
| 2026-05-05 15:36 | -6.93703 | -39.84192 | 11750 ft | 328 kts | 120° |
| 2026-05-05 15:36 | -6.94862 | -39.82265 | 11394 ft | 320 kts | 120° |
| 2026-05-05 15:36 | -6.96007 | -39.80362 | 11044 ft | 311 kts | 120° |
| 2026-05-05 15:37 | -6.97102 | -39.78541 | 10709 ft | 302 kts | 120° |
| 2026-05-05 15:37 | -6.98186 | -39.76738 | 10376 ft | 294 kts | 120° |
| 2026-05-05 15:37 | -6.99221 | -39.75017 | 10060 ft | 286 kts | 120° |
| 2026-05-05 15:37 | -7.00239 | -39.73323 | 9745 ft | 279 kts | 120° |
| 2026-05-05 15:38 | -7.01244 | -39.71652 | 9444 ft | 276 kts | 120° |
| 2026-05-05 15:38 | -7.02227 | -39.70015 | 9146 ft | 275 kts | 120° |
| 2026-05-05 15:38 | -7.03219 | -39.68366 | 8844 ft | 275 kts | 120° |
| 2026-05-05 15:38 | -7.04211 | -39.66715 | 8540 ft | 273 kts | 120° |
| 2026-05-05 15:39 | -7.05190 | -39.65084 | 8238 ft | 272 kts | 120° |
| 2026-05-05 15:39 | -7.06166 | -39.63461 | 7938 ft | 270 kts | 120° |
| 2026-05-05 15:39 | -7.07127 | -39.61862 | 7642 ft | 269 kts | 121° |
| 2026-05-05 15:39 | -7.08097 | -39.60247 | 7343 ft | 267 kts | 120° |
| 2026-05-05 15:40 | -7.09057 | -39.58649 | 7050 ft | 267 kts | 121° |
| 2026-05-05 15:40 | -7.10022 | -39.57043 | 6754 ft | 266 kts | 121° |
| 2026-05-05 15:40 | -7.10973 | -39.55458 | 6460 ft | 264 kts | 121° |
| 2026-05-05 15:40 | -7.11806 | -39.53839 | 6194 ft | 261 kts | 111° |
| 2026-05-05 15:41 | -7.12452 | -39.52128 | 5965 ft | 262 kts | 111° |
| 2026-05-05 15:41 | -7.13094 | -39.50421 | 5683 ft | 260 kts | 111° |
| 2026-05-05 15:41 | -7.13736 | -39.48715 | 5396 ft | 259 kts | 111° |
| 2026-05-05 15:41 | -7.14368 | -39.47034 | 5109 ft | 258 kts | 111° |
| 2026-05-05 15:42 | -7.15007 | -39.45337 | 4817 ft | 257 kts | 111° |
| 2026-05-05 15:42 | -7.15631 | -39.43676 | 4524 ft | 254 kts | 111° |
| 2026-05-05 15:42 | -7.16252 | -39.42025 | 4200 ft | 244 kts | 111° |
| 2026-05-05 15:42 | -7.16828 | -39.40494 | 3931 ft | 228 kts | 111° |
| 2026-05-05 15:43 | -7.17372 | -39.39047 | 3676 ft | 214 kts | 111° |
| 2026-05-05 15:43 | -7.17889 | -39.37672 | 3430 ft | 202 kts | 111° |
| 2026-05-05 15:43 | -7.18364 | -39.36409 | 3249 ft | 182 kts | 111° |
| 2026-05-05 15:43 | -7.18781 | -39.35300 | 3076 ft | 158 kts | 111° |
| 2026-05-05 15:44 | -7.19150 | -39.34315 | 2812 ft | 142 kts | 112° |
| 2026-05-05 15:44 | -7.19480 | -39.33436 | 2543 ft | 127 kts | 113° |
| 2026-05-05 15:44 | -7.19778 | -39.32641 | 2329 ft | 119 kts | 114° |
| 2026-05-05 15:44 | -7.20069 | -39.31865 | 2172 ft | 120 kts | 115° |
| 2026-05-05 15:45 | -7.20363 | -39.31085 | 2036 ft | 119 kts | 116° |
| 2026-05-05 15:45 | -7.20662 | -39.30292 | 1883 ft | 121 kts | 117° |
| 2026-05-05 15:45 | -7.20958 | -39.29504 | 1726 ft | 121 kts | 117° |
| 2026-05-05 15:45 | -7.21256 | -39.28709 | 1562 ft | 120 kts | 115° |
| 2026-05-05 15:46 | -7.21544 | -39.27932 | 1415 ft | 118 kts | 116° |
| 2026-05-05 15:46 | -7.21818 | -39.27205 | 1362 ft | 94 kts | 111° |
| 2026-05-05 15:46 | -7.21971 | -39.26798 | 1354 ft | 33 kts | 110° |
| 2026-05-05 15:46 | -7.22013 | -39.26667 | 1352 ft | 13 kts | 99° |
| 2026-05-05 15:47 | -7.22037 | -39.26617 | 1350 ft | 3 kts | 216° |
| 2026-05-05 15:47 | -7.22040 | -39.26631 | 1350 ft | 3 kts | 286° |
| 2026-05-05 15:47 | -7.22024 | -39.26669 | 1352 ft | 5 kts | 292° |
| 2026-05-05 15:47 | -7.22000 | -39.26730 | 1353 ft | 13 kts | 291° |
| 2026-05-05 15:48 | -7.21958 | -39.26843 | 1355 ft | 21 kts | 290° |
| 2026-05-05 15:48 | -7.21898 | -39.27005 | 1358 ft | 27 kts | 295° |
| 2026-05-05 15:48 | -7.21819 | -39.27152 | 1361 ft | 16 kts | 329° |
| 2026-05-05 15:48 | -7.21750 | -39.27165 | 1360 ft | 9 kts | 332° |
| 2026-05-05 15:49 | -7.21687 | -39.27197 | 1360 ft | 9 kts | 335° |
| 2026-05-05 15:49 | -7.21640 | -39.27218 | 1359 ft | 6 kts | 332° |
| 2026-05-05 15:49 | -7.21607 | -39.27223 | 1359 ft | 4 kts | 17° |
| 2026-05-05 15:49 | -7.21588 | -39.27216 | 1358 ft | 0 kts | 19° |